| time (UTC) | temp F | wind direction | speed MPH | gust MPH | rain 1hr in | rain 24hr in | rain mn in | humidity % | barometer mb |
| 20260504120120 | 54 | 213 | 1.0 | 7.0 | 0.00 | 0.00 | 0.00 | 48 | 1013.9 |
| 20260504110559 | 50 | 275 | 1.0 | 6.0 | 0.00 | 0.00 | 0.00 | 50 | 1014.1 |
| 20260504110114 | 50 | 302 | 1.0 | 6.0 | 0.00 | 0.00 | 0.00 | 49 | 1014.0 |
| 20260504100559 | 50 | 215 | 1.0 | 4.0 | 0.00 | 0.00 | 0.00 | 47 | 1013.8 |
| 20260504100117 | 50 | 235 | 1.0 | 4.0 | 0.00 | 0.00 | 0.00 | 47 | 1013.8 |
| 20260504081558 | 50 | 265 | 1.0 | 3.0 | 0.00 | 0.00 | 0.00 | 50 | 1014.3 |
| 20260504081059 | 50 | 246 | 1.0 | 4.0 | 0.00 | 0.00 | 0.00 | 50 | 1014.2 |
| 20260504080603 | 49 | 234 | 1.0 | 4.0 | 0.00 | 0.00 | 0.00 | 50 | 1014.2 |
| 20260504060107 | 52 | 0 | 0.0 | 4.0 | 0.00 | 0.00 | 0.00 | 44 | 1014.6 |
| 20260504050559 | 52 | 233 | 1.0 | 4.0 | 0.00 | 0.00 | 0.00 | 44 | 1014.9 |
| 20260504045602 | 52 | 0 | 1.0 | 4.0 | 0.00 | 0.00 | 0.00 | 45 | 1014.9 |
| 20260504045059 | 52 | 240 | 1.0 | 4.0 | 0.00 | 0.00 | 0.00 | 44 | 1015.0 |
| 20260504044600 | 52 | 238 | 1.0 | 3.0 | 0.00 | 0.00 | 0.00 | 46 | 1015.0 |
| 20260504044100 | 51 | 275 | 1.0 | 3.0 | 0.00 | 0.00 | 0.00 | 46 | 1015.0 |
| 20260504043600 | 51 | 275 | 0.0 | 3.0 | 0.00 | 0.00 | 0.00 | 46 | 1015.0 |
| 20260504043116 | 51 | 271 | 0.0 | 4.0 | 0.00 | 0.00 | 0.00 | 46 | 1015.0 |
| 20260504042600 | 51 | 267 | 0.0 | 4.0 | 0.00 | 0.00 | 0.00 | 45 | 1014.9 |
| 20260504042059 | 51 | 271 | 1.0 | 4.0 | 0.00 | 0.00 | 0.00 | 45 | 1014.9 |
| 20260504041600 | 51 | 240 | 1.0 | 3.0 | 0.00 | 0.00 | 0.00 | 45 | 1014.9 |
| 20260504041059 | 50 | 0 | 0.0 | 2.0 | 0.00 | 0.00 | 0.00 | 46 | 1014.8 |
| 20260504040559 | 50 | 263 | 0.0 | 3.0 | 0.00 | 0.00 | 0.00 | 45 | 1014.7 |
| 20260504035559 | 51 | 0 | 1.0 | 4.0 | 0.00 | 0.00 | 0.00 | 45 | 1014.8 |
| 20260504035102 | 51 | 244 | 1.0 | 4.0 | 0.00 | 0.00 | 0.00 | 43 | 1014.8 |
| 20260504034601 | 51 | 231 | 1.0 | 4.0 | 0.00 | 0.00 | 0.00 | 42 | 1014.7 |
| 20260504034101 | 51 | 232 | 1.0 | 4.0 | 0.00 | 0.00 | 0.00 | 42 | 1014.8 |
| 20260504033600 | 51 | 229 | 1.0 | 4.0 | 0.00 | 0.00 | 0.00 | 42 | 1014.9 |
| 20260504033116 | 51 | 238 | 1.0 | 4.0 | 0.00 | 0.00 | 0.00 | 40 | 1014.8 |
| 20260504032603 | 51 | 277 | 0.0 | 4.0 | 0.00 | 0.00 | 0.00 | 41 | 1014.8 |
| 20260504032100 | 51 | 234 | 1.0 | 3.0 | 0.00 | 0.00 | 0.00 | 42 | 1014.8 |
| 20260504031605 | 51 | 267 | 1.0 | 3.0 | 0.00 | 0.00 | 0.00 | 42 | 1015.0 |
| 20260504031103 | 51 | 312 | 0.0 | 5.0 | 0.00 | 0.00 | 0.00 | 41 | 1014.9 |
| 20260504030559 | 51 | 0 | 1.0 | 5.0 | 0.00 | 0.00 | 0.00 | 41 | 1014.9 |
| 20260504030100 | 51 | 0 | 0.0 | 4.0 | 0.00 | 0.00 | 0.00 | 40 | 1014.8 |
| 20260504025604 | 51 | 0 | 1.0 | 4.0 | 0.00 | 0.00 | 0.00 | 40 | 1014.8 |
| 20260504025100 | 52 | 0 | 1.0 | 4.0 | 0.00 | 0.00 | 0.00 | 39 | 1014.7 |
| 20260504024602 | 51 | 222 | 0.0 | 4.0 | 0.00 | 0.00 | 0.00 | 40 | 1014.7 |
| 20260504024102 | 52 | 235 | 1.0 | 4.0 | 0.00 | 0.00 | 0.00 | 39 | 1014.7 |
| 20260504023559 | 52 | 205 | 1.0 | 3.0 | 0.00 | 0.00 | 0.00 | 39 | 1014.8 |
| 20260504023100 | 52 | 204 | 1.0 | 3.0 | 0.00 | 0.00 | 0.00 | 39 | 1014.8 |
| 20260504022601 | 54 | 145 | 0.0 | 4.0 | 0.00 | 0.00 | 0.00 | 36 | 1014.8 |
| 20260504022100 | 55 | 173 | 1.0 | 4.0 | 0.00 | 0.00 | 0.00 | 35 | 1014.6 |
| 20260504021600 | 55 | 207 | 1.0 | 3.0 | 0.00 | 0.00 | 0.00 | 33 | 1014.6 |
| 20260504021059 | 54 | 229 | 1.0 | 2.0 | 0.00 | 0.00 | 0.00 | 34 | 1014.4 |
| 20260504020601 | 54 | 261 | 0.0 | 1.0 | 0.00 | 0.00 | 0.00 | 35 | 1014.5 |
| 20260504020058 | 54 | 261 | 0.0 | 1.0 | 0.00 | 0.00 | 0.00 | 35 | 1014.4 |
| 20260504015600 | 54 | 261 | 0.0 | 2.0 | 0.00 | 0.00 | 0.00 | 35 | 1014.4 |
| 20260504015100 | 54 | 261 | 0.0 | 2.0 | 0.00 | 0.00 | 0.00 | 35 | 1014.3 |
| 20260504014559 | 54 | 261 | 1.0 | 2.0 | 0.00 | 0.00 | 0.00 | 35 | 1014.3 |
| 20260504014059 | 53 | 261 | 1.0 | 2.0 | 0.00 | 0.00 | 0.00 | 35 | 1014.2 |
| 20260504013559 | 53 | 261 | 1.0 | 2.0 | 0.00 | 0.00 | 0.00 | 36 | 1014.2 |
| 20260504013112 | 53 | 261 | 1.0 | 2.0 | 0.00 | 0.00 | 0.00 | 37 | 1014.1 |
| 20260504012600 | 53 | 261 | 0.0 | 2.0 | 0.00 | 0.00 | 0.00 | 37 | 1014.0 |
| 20260504012103 | 53 | 261 | 0.0 | 2.0 | 0.00 | 0.00 | 0.00 | 36 | 1013.9 |
| 20260504011601 | 53 | 261 | 0.0 | 2.0 | 0.00 | 0.00 | 0.00 | 36 | 1013.9 |
| 20260504011101 | 53 | 0 | 1.0 | 2.0 | 0.00 | 0.00 | 0.00 | 36 | 1013.9 |
| 20260504010559 | 53 | 0 | 0.0 | 2.0 | 0.00 | 0.00 | 0.00 | 37 | 1013.8 |
| 20260504005559 | 53 | 261 | 1.0 | 2.0 | 0.00 | 0.00 | 0.00 | 37 | 1013.9 |
| 20260504005059 | 53 | 263 | 1.0 | 3.0 | 0.00 | 0.00 | 0.00 | 37 | 1013.9 |
| 20260504004623 | 53 | 265 | 1.0 | 3.0 | 0.00 | 0.00 | 0.00 | 36 | 1013.9 |
| 20260504004059 | 53 | 267 | 1.0 | 3.0 | 0.00 | 0.00 | 0.00 | 36 | 1013.8 |
| 20260504003559 | 53 | 267 | 1.0 | 3.0 | 0.00 | 0.00 | 0.00 | 36 | 1013.8 |
| 20260504003102 | 53 | 268 | 1.0 | 3.0 | 0.00 | 0.00 | 0.00 | 37 | 1013.8 |
| 20260504002600 | 53 | 268 | 1.0 | 2.0 | 0.00 | 0.00 | 0.00 | 37 | 1013.7 |
| 20260504002104 | 54 | 268 | 1.0 | 3.0 | 0.00 | 0.00 | 0.00 | 36 | 1013.8 |
| 20260504001608 | 54 | 268 | 1.0 | 3.0 | 0.00 | 0.00 | 0.00 | 36 | 1013.7 |
| 20260504001100 | 54 | 269 | 1.0 | 2.0 | 0.00 | 0.00 | 0.00 | 37 | 1013.7 |
| 20260504000556 | 54 | 279 | 1.0 | 3.0 | 0.00 | 0.00 | 0.00 | 36 | 1013.7 |
| 20260503235555 | 54 | 241 | 1.0 | 3.0 | 0.00 | 0.00 | 0.00 | 36 | 1013.7 |
| 20260503235058 | 55 | 281 | 1.0 | 4.0 | 0.00 | 0.00 | 0.00 | 35 | 1013.7 |
| 20260503234557 | 55 | 292 | 0.0 | 5.0 | 0.00 | 0.00 | 0.00 | 35 | 1013.7 |
| 20260503234100 | 55 | 0 | 1.0 | 6.0 | 0.00 | 0.00 | 0.00 | 34 | 1013.6 |
| 20260503233600 | 55 | 257 | 2.0 | 7.0 | 0.00 | 0.00 | 0.00 | 34 | 1013.5 |
| 20260503233057 | 56 | 290 | 1.0 | 7.0 | 0.00 | 0.00 | 0.00 | 34 | 1013.5 |
| 20260503232556 | 56 | 285 | 2.0 | 7.0 | 0.00 | 0.00 | 0.00 | 34 | 1013.5 |
| 20260503232059 | 56 | 227 | 1.0 | 7.0 | 0.00 | 0.00 | 0.00 | 35 | 1013.5 |
| 20260503231558 | 56 | 265 | 1.0 | 7.0 | 0.00 | 0.00 | 0.00 | 34 | 1013.4 |
| 20260503231059 | 56 | 311 | 1.0 | 4.0 | 0.00 | 0.00 | 0.00 | 34 | 1013.3 |
| 20260503230559 | 56 | 287 | 1.0 | 6.0 | 0.00 | 0.00 | 0.00 | 34 | 1013.4 |
| 20260503230110 | 56 | 302 | 1.0 | 6.0 | 0.00 | 0.00 | 0.00 | 36 | 1013.3 |
| 20260503225556 | 57 | 250 | 2.0 | 4.0 | 0.00 | 0.00 | 0.00 | 34 | 1013.3 |
| 20260503225057 | 57 | 296 | 2.0 | 7.0 | 0.00 | 0.00 | 0.00 | 34 | 1013.2 |
| 20260503224559 | 57 | 315 | 2.0 | 7.0 | 0.00 | 0.00 | 0.00 | 33 | 1013.2 |
| 20260503224056 | 57 | 310 | 1.0 | 7.0 | 0.00 | 0.00 | 0.00 | 35 | 1013.3 |
| 20260503223556 | 58 | 237 | 1.0 | 7.0 | 0.00 | 0.00 | 0.00 | 33 | 1013.3 |
| 20260503223059 | 58 | 290 | 0.0 | 7.0 | 0.00 | 0.00 | 0.00 | 33 | 1013.2 |
| 20260503222559 | 58 | 302 | 3.0 | 7.0 | 0.00 | 0.00 | 0.00 | 32 | 1013.4 |
| 20260503222100 | 58 | 309 | 3.0 | 7.0 | 0.00 | 0.00 | 0.00 | 33 | 1013.3 |
| 20260503221558 | 58 | 288 | 2.0 | 8.0 | 0.00 | 0.00 | 0.00 | 33 | 1013.3 |
| 20260503221103 | 58 | 355 | 2.0 | 11.0 | 0.00 | 0.00 | 0.00 | 32 | 1013.3 |
| 20260503220559 | 58 | 303 | 4.0 | 11.0 | 0.00 | 0.00 | 0.00 | 32 | 1013.4 |
| 20260503215559 | 58 | 325 | 2.0 | 6.0 | 0.00 | 0.00 | 0.00 | 34 | 1013.5 |
| 20260503215058 | 58 | 292 | 3.0 | 7.0 | 0.00 | 0.00 | 0.00 | 32 | 1013.4 |
| 20260503214607 | 58 | 236 | 1.0 | 7.0 | 0.00 | 0.00 | 0.00 | 33 | 1013.4 |
| 20260503214059 | 59 | 328 | 1.0 | 11.0 | 0.00 | 0.00 | 0.00 | 31 | 1013.4 |
| 20260503213559 | 59 | 277 | 2.0 | 11.0 | 0.00 | 0.00 | 0.00 | 34 | 1013.5 |
| 20260503213102 | 59 | 266 | 2.0 | 6.0 | 0.00 | 0.00 | 0.00 | 31 | 1013.5 |
| 20260503212559 | 59 | 317 | 1.0 | 10.0 | 0.00 | 0.00 | 0.00 | 37 | 1013.6 |
| 20260503212059 | 58 | 116 | 2.0 | 10.0 | 0.00 | 0.00 | 0.00 | 33 | 1013.6 |
| 20260503211605 | 58 | 308 | 3.0 | 8.0 | 0.00 | 0.00 | 0.00 | 32 | 1013.6 |
| 20260503211055 | 58 | 326 | 2.0 | 11.0 | 0.00 | 0.00 | 0.00 | 34 | 1013.5 |
| 20260503210600 | 58 | 267 | 2.0 | 11.0 | 0.00 | 0.00 | 0.00 | 32 | 1013.6 |
| 20260503210100 | 58 | 233 | 4.0 | 11.0 | 0.00 | 0.00 | 0.00 | 33 | 1013.7 |
| 20260503205559 | 59 | 299 | 3.0 | 11.0 | 0.00 | 0.00 | 0.00 | 33 | 1013.6 |
| 20260503205100 | 59 | 346 | 4.0 | 9.0 | 0.00 | 0.00 | 0.00 | 31 | 1013.6 |
| 20260503204600 | 59 | 26 | 3.0 | 9.0 | 0.00 | 0.00 | 0.00 | 35 | 1013.6 |
| 20260503204059 | 59 | 326 | 2.0 | 9.0 | 0.00 | 0.00 | 0.00 | 31 | 1013.7 |
| 20260503203600 | 59 | 294 | 4.0 | 9.0 | 0.00 | 0.00 | 0.00 | 31 | 1013.8 |
| 20260503203106 | 60 | 336 | 2.0 | 5.0 | 0.00 | 0.00 | 0.00 | 32 | 1013.9 |
| 20260503202601 | 60 | 5 | 2.0 | 8.0 | 0.00 | 0.00 | 0.00 | 33 | 1013.8 |
| 20260503202100 | 60 | 327 | 1.0 | 14.0 | 0.00 | 0.00 | 0.00 | 33 | 1013.7 |
| 20260503201600 | 59 | 352 | 3.0 | 14.0 | 0.00 | 0.00 | 0.00 | 30 | 1013.8 |
| 20260503201103 | 59 | 281 | 3.0 | 14.0 | 0.00 | 0.00 | 0.00 | 31 | 1014.0 |
| 20260503200601 | 60 | 350 | 2.0 | 6.0 | 0.00 | 0.00 | 0.00 | 35 | 1014.0 |
| 20260503200059 | 59 | 325 | 3.0 | 9.0 | 0.00 | 0.00 | 0.00 | 35 | 1014.0 |
| 20260503195600 | 59 | 315 | 2.0 | 9.0 | 0.00 | 0.00 | 0.00 | 33 | 1014.2 |
| 20260503195100 | 59 | 327 | 4.0 | 11.0 | 0.00 | 0.00 | 0.00 | 31 | 1014.2 |
| 20260503194604 | 58 | 285 | 3.0 | 11.0 | 0.00 | 0.00 | 0.00 | 39 | 1014.4 |
| 20260503194100 | 58 | 302 | 6.0 | 11.0 | 0.00 | 0.00 | 0.00 | 33 | 1014.3 |
| 20260503193600 | 59 | 5 | 1.0 | 9.0 | 0.00 | 0.00 | 0.00 | 36 | 1014.5 |
| 20260503193101 | 59 | 153 | 2.0 | 11.0 | 0.00 | 0.00 | 0.00 | 33 | 1014.5 |
| 20260503192559 | 57 | 280 | 4.0 | 12.0 | 0.00 | 0.00 | 0.00 | 35 | 1014.7 |
| 20260503192059 | 58 | 258 | 4.0 | 12.0 | 0.00 | 0.00 | 0.00 | 35 | 1014.7 |
| 20260503191609 | 58 | 271 | 3.0 | 10.0 | 0.00 | 0.00 | 0.00 | 38 | 1014.8 |
| 20260503191059 | 57 | 340 | 4.0 | 10.0 | 0.00 | 0.00 | 0.00 | 35 | 1014.9 |
| 20260503190559 | 58 | 285 | 3.0 | 9.0 | 0.00 | 0.00 | 0.00 | 35 | 1014.9 |
| 20260503190100 | 58 | 319 | 4.0 | 11.0 | 0.00 | 0.00 | 0.00 | 36 | 1014.9 |
| 20260503185600 | 57 | 313 | 4.0 | 11.0 | 0.00 | 0.00 | 0.00 | 39 | 1015.0 |
| 20260503185100 | 57 | 312 | 5.0 | 11.0 | 0.00 | 0.00 | 0.00 | 36 | 1015.1 |
| 20260503184609 | 58 | 304 | 3.0 | 11.0 | 0.00 | 0.00 | 0.00 | 34 | 1015.2 |
| 20260503184100 | 56 | 240 | 3.0 | 11.0 | 0.00 | 0.00 | 0.00 | 37 | 1015.2 |
| 20260503183559 | 57 | 205 | 4.0 | 11.0 | 0.00 | 0.00 | 0.00 | 40 | 1015.1 |
| 20260503183103 | 57 | 360 | 2.0 | 10.0 | 0.00 | 0.00 | 0.00 | 38 | 1015.1 |
| 20260503182603 | 55 | 288 | 3.0 | 12.0 | 0.00 | 0.00 | 0.00 | 37 | 1015.1 |
| 20260503182059 | 55 | 324 | 5.0 | 12.0 | 0.00 | 0.00 | 0.00 | 38 | 1015.3 |
| 20260503181603 | 56 | 281 | 6.0 | 12.0 | 0.00 | 0.00 | 0.00 | 39 | 1015.4 |
| 20260503181100 | 56 | 306 | 7.0 | 11.0 | 0.00 | 0.00 | 0.00 | 36 | 1015.3 |
| 20260503180601 | 57 | 319 | 3.0 | 11.0 | 0.00 | 0.00 | 0.00 | 35 | 1015.3 |
| 20260503180104 | 57 | 338 | 2.0 | 11.0 | 0.00 | 0.00 | 0.00 | 38 | 1015.3 |
| 20260503175600 | 56 | 275 | 4.0 | 11.0 | 0.00 | 0.00 | 0.00 | 40 | 1015.3 |
| 20260503175059 | 56 | 294 | 4.0 | 11.0 | 0.00 | 0.00 | 0.00 | 37 | 1015.4 |
| 20260503174618 | 56 | 299 | 3.0 | 11.0 | 0.00 | 0.00 | 0.00 | 38 | 1015.3 |
| 20260503174059 | 56 | 317 | 5.0 | 11.0 | 0.00 | 0.00 | 0.00 | 37 | 1015.4 |
| 20260503173559 | 55 | 292 | 3.0 | 12.0 | 0.00 | 0.00 | 0.00 | 39 | 1015.5 |
| 20260503173107 | 55 | 88 | 4.0 | 12.0 | 0.00 | 0.00 | 0.00 | 38 | 1015.5 |
| 20260503172601 | 55 | 313 | 2.0 | 8.0 | 0.00 | 0.00 | 0.00 | 39 | 1015.6 |
| 20260503172100 | 55 | 171 | 4.0 | 16.0 | 0.00 | 0.00 | 0.00 | 43 | 1015.6 |
| 20260503171604 | 53 | 221 | 3.0 | 16.0 | 0.00 | 0.00 | 0.00 | 39 | 1015.5 |
| 20260503171100 | 52 | 302 | 4.0 | 13.0 | 0.00 | 0.00 | 0.00 | 42 | 1015.7 |
| 20260503170600 | 51 | 313 | 6.0 | 12.0 | 0.00 | 0.00 | 0.00 | 42 | 1015.7 |
| 20260503170103 | 51 | 291 | 3.0 | 9.0 | 0.00 | 0.00 | 0.00 | 43 | 1015.7 |
| 20260503160115 | 51 | 292 | 5.0 | 11.0 | 0.00 | 0.00 | 0.00 | 42 | 1016.2 |
| 20260503150559 | 49 | 294 | 6.0 | 17.0 | 0.00 | 0.00 | 0.00 | 45 | 1016.4 |
| 20260503150104 | 48 | 328 | 9.0 | 17.0 | 0.00 | 0.00 | 0.00 | 46 | 1016.4 |
| 20260503140110 | 45 | 323 | 6.0 | 17.0 | 0.00 | 0.00 | 0.00 | 53 | 1016.5 |
| 20260503131100 | 44 | 275 | 4.0 | 11.0 | 0.00 | 0.00 | 0.00 | 59 | 1016.4 |
| 20260503130600 | 44 | 337 | 4.0 | 11.0 | 0.00 | 0.00 | 0.00 | 59 | 1016.5 |